Time;durP1;ratioP1;P1;durP2;ratioP2;P2;SDS_P1;SDS_P2;PMS_P1;PMS_P2;Temp;Humidity;BMP_temperature;BMP_pressure;BME280_temperature;BME280_humidity;BME280_pressure;Samples;Min_cycle;Max_cycle;Signal;HPM_P1;HPM_P2
2023/10/31 07:23:12;;;;;;;16.60;15.00;;;;;;;-145.79;100.00;76936.41;5320424;27;20416;-67
2023/10/31 07:25:43;;;;;;;17.48;15.85;;;;;;;-145.79;100.00;76936.41;5299831;28;20028;-67
2023/10/31 07:28:14;;;;;;;16.58;15.07;;;;;;;-145.79;100.00;76927.94;5299926;28;20028;-68
2023/10/31 07:30:46;;;;;;;14.43;12.98;;;;;;;-145.79;100.00;76938.53;5300365;28;20032;-68
2023/10/31 07:33:17;;;;;;;15.35;14.05;;;;;;;-145.79;100.00;76925.81;5299247;28;20484;-71
2023/10/31 07:35:49;;;;;;;15.02;13.68;;;;;;;-145.79;100.00;76930.06;5300225;28;20121;-68
2023/10/31 07:38:20;;;;;;;14.77;13.48;;;;;;;-145.79;100.00;76932.19;5299294;28;20059;-67
2023/10/31 07:40:51;;;;;;;13.27;12.07;;;;;;;-145.79;100.00;76923.69;5295965;28;20489;-68
2023/10/31 07:43:23;;;;;;;14.63;13.27;;;;;;;-145.79;100.00;76923.69;5299896;28;20020;-68
2023/10/31 07:45:54;;;;;;;13.80;12.55;;;;;;;-145.79;100.00;76919.47;5299071;28;20109;-68
2023/10/31 07:48:25;;;;;;;14.77;13.43;;;;;;;-145.79;100.00;76927.94;5299892;28;20085;-68
2023/10/31 07:50:56;;;;;;;15.23;13.93;;;;;;;-145.79;100.00;76915.22;5299959;28;20534;-68
2023/10/31 07:53:28;;;;;;;13.95;12.77;;;;;;;-145.79;100.00;76915.22;5298975;28;20047;-68
2023/10/31 07:55:59;;;;;;;15.30;14.00;;;;;;;-145.79;100.00;76908.88;5299807;28;20028;-68
2023/10/31 07:58:30;;;;;;;15.23;13.88;;;;;;;-145.79;100.00;76915.22;5292869;28;20025;-68
2023/10/31 08:01:02;;;;;;;16.63;14.98;;;;;;;-145.79;100.00;76915.22;5298409;28;20376;-68
2023/10/31 08:03:33;;;;;;;17.73;16.08;;;;;;;-145.79;100.00;76913.09;5299792;28;20024;-68
2023/10/31 08:06:07;;;;;;;18.95;17.02;;;;;;;-145.79;100.00;76919.47;5290660;28;20035;-68
2023/10/31 08:08:39;;;;;;;19.30;17.50;;;;;;;-145.79;100.00;76919.47;5298592;28;20020;-72
2023/10/31 08:11:11;;;;;;;19.10;17.38;;;;;;;-145.79;100.00;76919.47;5299316;28;20033;-71
2023/10/31 08:13:42;;;;;;;19.88;18.08;;;;;;;-145.79;100.00;76919.47;5298847;28;20024;-71
2023/10/31 08:16:19;;;;;;;20.73;18.73;;;;;;;-145.79;100.00;76923.69;5298649;28;20151;-68
2023/10/31 08:18:50;;;;;;;20.35;18.35;;;;;;;-145.79;100.00;76927.94;5299111;28;20028;-68
2023/10/31 08:21:21;;;;;;;20.48;18.58;;;;;;;-145.79;100.00;76930.06;5295374;28;20054;-68
2023/10/31 08:23:53;;;;;;;21.50;19.33;;;;;;;-145.79;100.00;76927.94;5286766;28;20016;-68
2023/10/31 08:26:24;;;;;;;20.90;19.00;;;;;;;-145.79;100.00;76923.69;5288376;28;20053;-68
2023/10/31 08:28:55;;;;;;;22.90;20.60;;;;;;;-145.79;100.00;76923.69;5276080;28;20511;-68
2023/10/31 08:31:27;;;;;;;19.92;17.55;;;;;;;-145.79;100.00;76919.47;5285465;28;20202;-68
2023/10/31 08:33:58;;;;;;;20.27;18.33;;;;;;;-145.79;100.00;76919.47;5282263;28;20499;-69
2023/10/31 08:36:29;;;;;;;20.92;19.02;;;;;;;-145.79;100.00;76915.22;5273218;28;20021;-69
2023/10/31 08:39:01;;;;;;;20.48;18.27;;;;;;;-145.79;100.00;76919.47;5276509;28;20029;-69
2023/10/31 08:41:32;;;;;;;20.23;18.13;;;;;;;-145.79;100.00;76915.22;5275094;28;20025;-69
2023/10/31 08:44:04;;;;;;;19.38;17.13;;;;;;;-145.79;100.00;76921.59;5271811;28;20112;-70
2023/10/31 08:46:35;;;;;;;18.42;16.70;;;;;;;-145.79;100.00;76923.69;5273138;28;20021;-69
2023/10/31 08:49:06;;;;;;;18.85;17.00;;;;;;;-145.79;100.00;76927.94;5270372;28;20388;-71
2023/10/31 08:51:38;;;;;;;19.05;17.15;;;;;;;-145.79;100.00;76919.47;5275384;28;20021;-74
2023/10/31 08:54:09;;;;;;;18.60;16.63;;;;;;;-145.79;100.00;76932.19;5272374;28;20021;-70
2023/10/31 08:56:41;;;;;;;18.30;16.55;;;;;;;-145.79;100.00;76919.47;5271840;28;20062;-68
2023/10/31 08:59:12;;;;;;;21.52;19.35;;;;;;;-145.79;100.00;76915.22;5276441;28;20029;-68
2023/10/31 09:01:43;;;;;;;17.20;15.52;;;;;;;-145.79;100.00;76934.28;5265134;28;20495;-68
2023/10/31 09:04:15;;;;;;;17.98;15.00;;;;;;;-145.79;100.00;76936.41;5269287;28;20048;-72
2023/10/31 09:06:46;;;;;;;16.35;14.73;;;;;;;-145.79;100.00;76910.97;5260051;28;20066;-67
2023/10/31 09:09:18;;;;;;;16.13;14.45;;;;;;;-145.79;100.00;76913.09;5243833;28;20064;-70
2023/10/31 09:11:49;;;;;;;17.08;15.30;;;;;;;-145.79;100.00;76921.59;5260233;28;20009;-69
2023/10/31 09:14:20;;;;;;;16.92;15.02;;;;;;;-145.79;100.00;76917.34;5270206;28;20024;-68
2023/10/31 09:16:52;;;;;;;16.30;14.60;;;;;;;-145.79;100.00;76917.34;5251842;28;20064;-68
2023/10/31 09:19:23;;;;;;;14.77;13.35;;;;;;;-145.79;100.00;76891.91;5274150;28;20020;-67
2023/10/31 09:21:55;;;;;;;15.02;13.52;;;;;;;-145.79;100.00;76910.97;5268914;28;20048;-69
2023/10/31 09:24:27;;;;;;;16.30;14.70;;;;;;;-145.79;100.00;76915.22;5272331;28;20043;-69
2023/10/31 09:26:58;;;;;;;16.33;14.00;;;;;;;-145.79;100.00;76923.69;5277607;28;20029;-70
2023/10/31 09:29:29;;;;;;;17.00;15.30;;;;;;;-145.79;100.00;76913.09;5274264;28;20099;-68
2023/10/31 09:32:01;;;;;;;15.38;13.77;;;;;;;-145.79;100.00;76902.50;5274862;28;20081;-67
2023/10/31 09:34:32;;;;;;;16.38;14.63;;;;;;;-145.79;100.00;76919.47;5273123;28;20417;-69
2023/10/31 09:37:03;;;;;;;14.73;13.32;;;;;;;-145.79;100.00;76906.75;5271895;28;20063;-68
2023/10/31 09:39:35;;;;;;;14.45;12.95;;;;;;;-145.79;100.00;76938.53;5262700;28;20028;-67
2023/10/31 09:42:07;;;;;;;15.23;13.65;;;;;;;-145.79;100.00;76951.25;5268173;28;20488;-67
2023/10/31 09:44:39;;;;;;;16.10;14.60;;;;;;;-145.79;100.00;76957.59;5262517;28;20017;-69
2023/10/31 09:47:10;;;;;;;15.77;14.18;;;;;;;-145.79;100.00;76955.50;5263564;28;20036;-69
2023/10/31 09:49:42;;;;;;;14.93;13.43;;;;;;;-145.79;100.00;76961.84;5273014;28;20052;-69
2023/10/31 09:52:14;;;;;;;15.38;13.98;;;;;;;-145.79;100.00;76949.13;5264615;28;20033;-70
2023/10/31 09:54:48;;;;;;;16.23;14.63;;;;;;;-145.79;100.00;76953.38;5266229;28;20128;-70
2023/10/31 09:57:19;;;;;;;15.77;14.18;;;;;;;-145.79;100.00;76953.38;5268658;28;20025;-70
2023/10/31 09:59:51;;;;;;;15.20;13.82;;;;;;;-145.79;100.00;76955.50;5273045;28;20089;-69
2023/10/31 10:02:23;;;;;;;15.57;14.18;;;;;;;-145.79;100.00;76936.41;5259538;28;20040;-70
2023/10/31 10:04:54;;;;;;;14.02;12.73;;;;;;;-145.79;100.00;76927.94;5279913;28;20357;-71
2023/10/31 10:07:26;;;;;;;14.40;12.98;;;;;;;-145.79;100.00;76927.94;5258124;28;20487;-70
2023/10/31 10:09:58;;;;;;;13.93;12.52;;;;;;;-145.79;100.00;76942.78;5259774;28;20029;-71
2023/10/31 10:12:31;;;;;;;14.95;13.15;;;;;;;-145.79;100.00;76934.28;5270785;28;20029;-71
2023/10/31 10:15:03;;;;;;;14.20;12.80;;;;;;;-145.79;100.00;76951.25;5248942;28;20030;-70
2023/10/31 10:17:34;;;;;;;14.63;13.05;;;;;;;-145.79;100.00;76961.84;5270755;28;20054;-70
2023/10/31 10:20:09;;;;;;;17.63;14.52;;;;;;;-145.79;100.00;76955.50;5272987;28;20029;-70
2023/10/31 10:22:42;;;;;;;13.38;11.93;;;;;;;-145.79;100.00;76938.53;5279956;28;20127;-69
2023/10/31 10:25:16;;;;;;;13.45;12.05;;;;;;;-145.79;100.00;76940.66;5281678;28;20507;-68
2023/10/31 10:27:48;;;;;;;14.15;12.32;;;;;;;-145.79;100.00;76966.09;5276376;28;20036;-69
2023/10/31 10:30:19;;;;;;;13.18;11.93;;;;;;;-145.79;100.00;76959.72;5276790;28;20021;-68
2023/10/31 10:32:51;;;;;;;14.05;12.75;;;;;;;-145.79;100.00;76961.84;5282603;28;20031;-68
2023/10/31 10:35:22;;;;;;;13.52;12.32;;;;;;;-145.79;100.00;76955.50;5281056;28;20074;-69
2023/10/31 10:37:54;;;;;;;11.35;10.32;;;;;;;-145.79;100.00;76955.50;5282647;28;20120;-69
2023/10/31 10:40:26;;;;;;;12.52;11.32;;;;;;;-145.79;100.00;76961.84;5279009;28;20032;-67
2023/10/31 10:43:00;;;;;;;12.32;10.95;;;;;;;-145.79;100.00;76970.31;5273984;28;20098;-69
2023/10/31 10:45:31;;;;;;;12.10;10.93;;;;;;;-145.79;100.00;76961.84;5282171;28;20464;-70
2023/10/31 10:48:10;;;;;;;13.68;11.57;;;;;;;-145.79;100.00;76963.97;5277574;28;20106;-69
2023/10/31 10:50:43;;;;;;;12.45;10.88;;;;;;;-145.79;100.00;76927.94;5282416;28;20452;-69
2023/10/31 10:53:28;;;;;;;10.50;9.50;;;;;;;-145.79;100.00;76923.69;5281633;28;20024;-69
2023/10/31 10:56:12;;;;;;;13.35;12.00;;;;;;;-145.79;100.00;76947.00;5276353;28;20028;-69
2023/10/31 10:58:57;;;;;;;13.02;11.73;;;;;;;-145.79;100.00;76951.25;5278218;28;20017;-68
2023/10/31 11:01:30;;;;;;;14.23;12.85;;;;;;;-145.79;100.00;76961.84;5280453;28;20043;-68
2023/10/31 11:04:03;;;;;;;17.20;12.60;;;;;;;-145.79;100.00;76970.31;5268247;28;20037;-68
2023/10/31 11:06:36;;;;;;;14.65;13.15;;;;;;;-145.79;100.00;76974.56;5280262;28;20426;-68
2023/10/31 11:09:10;;;;;;;14.02;12.63;;;;;;;-145.79;100.00;76966.09;5281885;28;20074;-68
2023/10/31 11:11:48;;;;;;;14.40;13.00;;;;;;;-145.79;100.00;76980.94;5280983;28;20028;-68
2023/10/31 11:14:21;;;;;;;13.80;12.50;;;;;;;-145.79;100.00;76974.56;5277010;28;20077;-68
2023/10/31 11:16:55;;;;;;;13.98;12.68;;;;;;;-145.79;100.00;76976.69;5280997;28;20372;-68
2023/10/31 11:19:27;;;;;;;13.48;12.13;;;;;;;-145.79;100.00;76968.22;5277077;28;20398;-69
2023/10/31 11:22:00;;;;;;;13.77;12.18;;;;;;;-145.79;100.00;76976.69;5276472;28;20372;-69
2023/10/31 11:24:33;;;;;;;13.05;11.75;;;;;;;-145.79;100.00;76976.69;5267882;28;20029;-69
2023/10/31 11:27:07;;;;;;;13.00;11.70;;;;;;;-145.79;100.00;76970.31;5268980;28;20029;-69
2023/10/31 11:29:39;;;;;;;12.00;10.90;;;;;;;-145.79;100.00;76974.56;5262551;28;20087;-69
2023/10/31 11:32:11;;;;;;;12.10;10.98;;;;;;;-145.79;100.00;76957.59;5257248;28;20033;-69
2023/10/31 11:34:43;;;;;;;12.20;11.07;;;;;;;-145.79;100.00;76957.59;5274527;28;20024;-69
2023/10/31 11:37:34;;;;;;;11.27;9.98;;;;;;;-145.79;100.00;76944.91;5264091;28;20025;-69
2023/10/31 11:40:22;;;;;;;10.50;9.40;;;;;;;-145.79;100.00;76934.28;5259714;28;20589;-69
2023/10/31 11:42:57;;;;;;;11.38;10.18;;;;;;;-145.79;100.00;76927.94;5259019;28;20021;-69
2023/10/31 11:45:47;;;;;;;11.27;10.27;;;;;;;-145.79;100.00;76913.09;5267350;28;20035;-71
2023/10/31 11:48:45;;;;;;;11.68;10.05;;;;;;;-145.79;100.00;76915.22;5270929;28;20028;-69
2023/10/31 11:51:17;;;;;;;16.88;15.27;;;;;;;-145.79;100.00;76906.75;5263372;28;20041;-70
2023/10/31 11:53:49;;;;;;;10.73;9.68;;;;;;;-145.79;100.00;76900.38;5275523;28;20059;-68
2023/10/31 11:56:21;;;;;;;11.50;10.43;;;;;;;-145.79;100.00;76898.25;5263596;28;20470;-69
2023/10/31 11:59:00;;;;;;;11.43;9.82;;;;;;;-145.79;100.00;76896.16;5270379;28;20040;-69
2023/10/31 12:01:32;;;;;;;9.95;8.80;;;;;;;-145.79;100.00;76879.19;5269281;28;20033;-69
2023/10/31 12:04:03;;;;;;;11.10;8.60;;;;;;;-145.79;100.00;76883.44;5271883;28;20027;-68
2023/10/31 12:06:34;;;;;;;9.07;7.57;;;;;;;-145.79;100.00;76877.06;5271860;28;20496;-68
2023/10/31 12:09:06;;;;;;;7.97;7.28;;;;;;;-145.79;100.00;76872.84;5274271;28;20025;-68
2023/10/31 12:11:44;;;;;;;7.50;6.68;;;;;;;-145.79;100.00;76866.47;5277035;28;20024;-68
2023/10/31 12:14:19;;;;;;;8.13;5.80;;;;;;;-145.79;100.00;76866.47;5272826;28;20539;-68
2023/10/31 12:16:51;;;;;;;6.45;5.55;;;;;;;-145.79;100.00;76868.59;5273055;28;20242;-68
2023/10/31 12:19:22;;;;;;;6.10;5.53;;;;;;;-145.79;100.00;76862.25;5264187;28;20112;-67
2023/10/31 12:21:56;;;;;;;7.72;6.20;;;;;;;-145.79;100.00;76858.00;5273875;28;20504;-67
2023/10/31 12:24:27;;;;;;;6.00;5.20;;;;;;;-145.79;100.00;76853.75;5285064;28;20035;-68
2023/10/31 12:27:00;;;;;;;5.97;5.38;;;;;;;-145.79;100.00;76853.75;5276523;28;20044;-66
2023/10/31 12:29:32;;;;;;;5.88;5.25;;;;;;;-145.79;100.00;76853.75;5282865;28;20065;-67
2023/10/31 12:32:03;;;;;;;6.75;4.53;;;;;;;-145.79;100.00;76858.00;5285030;28;20048;-67
2023/10/31 12:34:34;;;;;;;4.97;4.47;;;;;;;-145.79;100.00;76858.00;5284278;28;20031;-66
2023/10/31 12:37:06;;;;;;;5.03;4.45;;;;;;;-145.79;100.00;76860.13;5285358;28;20086;-67
2023/10/31 12:39:37;;;;;;;4.78;3.78;;;;;;;-145.79;97.40;76870.72;5280325;28;20033;-65
2023/10/31 12:42:09;;;;;;;4.75;3.70;;;;;;;-145.79;99.15;76864.34;5283707;28;20074;-67
2023/10/31 12:44:40;;;;;;;3.85;3.50;;;;;;;-145.79;100.00;76847.41;5285078;28;20028;-66
2023/10/31 12:47:21;;;;;;;5.35;3.85;;;;;;;-145.79;100.00;76849.53;5280087;28;20154;-67
2023/10/31 12:50:18;;;;;;;5.25;4.75;;;;;;;-145.79;100.00;76847.41;5282669;28;20020;-66
2023/10/31 12:52:51;;;;;;;6.70;4.97;;;;;;;-145.79;100.00;76838.94;5284775;28;20420;-67
2023/10/31 12:55:24;;;;;;;3.83;3.40;;;;;;;-145.79;100.00;76841.03;5283986;28;20100;-66
2023/10/31 12:57:57;;;;;;;5.00;3.85;;;;;;;-145.79;99.97;76830.44;5275563;28;20399;-66
2023/10/31 13:00:33;;;;;;;4.38;3.70;;;;;;;-145.79;100.00;76817.72;5284480;28;20055;-66
2023/10/31 13:03:11;;;;;;;6.80;3.65;;;;;;;-145.79;100.00;76826.22;5281933;28;20032;-66
2023/10/31 13:05:43;;;;;;;4.80;2.95;;;;;;;-145.79;99.07;76836.81;5288659;28;20475;-67
2023/10/31 13:08:15;;;;;;;4.95;3.90;;;;;;;-145.79;100.00;76834.69;5283740;28;20034;-67
2023/10/31 13:10:47;;;;;;;5.57;3.45;;;;;;;-145.79;100.00;76834.69;5278662;28;20021;-67
2023/10/31 13:13:18;;;;;;;4.15;3.47;;;;;;;-145.79;100.00;76821.97;5283498;28;20036;-66
2023/10/31 13:15:49;;;;;;;4.72;3.70;;;;;;;-145.79;100.00;76836.81;5284461;28;20558;-67
2023/10/31 13:18:20;;;;;;;5.10;3.85;;;;;;;-145.79;100.00;76830.44;5283498;28;20035;-67
2023/10/31 13:20:52;;;;;;;4.18;2.95;;;;;;;-145.79;100.00;76838.94;5275292;28;20024;-68
2023/10/31 13:23:23;;;;;;;4.20;3.80;;;;;;;-145.79;100.00;76845.28;5283288;28;20024;-68
2023/10/31 13:25:54;;;;;;;3.70;2.90;;;;;;;-145.79;98.64;76849.53;5283564;28;20024;-67
2023/10/31 13:28:26;;;;;;;4.07;2.80;;;;;;;-145.79;100.00;76815.63;5283795;28;20028;-67
2023/10/31 13:30:57;;;;;;;5.72;2.83;;;;;;;-145.79;98.88;76836.81;5283358;28;20429;-68
2023/10/31 13:33:29;;;;;;;4.97;2.58;;;;;;;-145.79;99.25;76826.22;5283762;28;20506;-67
2023/10/31 13:36:00;;;;;;;5.55;2.90;;;;;;;-145.79;97.66;76847.41;5284258;28;20594;-67
2023/10/31 13:38:32;;;;;;;4.75;2.72;;;;;;;-145.79;97.60;76838.94;5276519;28;20169;-68
2023/10/31 13:41:03;;;;;;;4.07;2.40;;;;;;;-145.79;96.38;76845.28;5277395;28;20035;-68
2023/10/31 13:43:34;;;;;;;3.80;2.35;;;;;;;-145.79;99.25;76817.72;5283642;28;20476;-68
2023/10/31 13:46:06;;;;;;;3.75;2.40;;;;;;;-145.79;96.41;76832.56;5282952;28;20040;-67
2023/10/31 13:48:37;;;;;;;5.95;2.70;;;;;;;-145.79;96.54;76832.56;5283206;28;20397;-68
2023/10/31 13:51:09;;;;;;;3.65;1.98;;;;;;;-145.79;97.10;76838.94;5268910;28;20035;-68
2023/10/31 13:53:40;;;;;;;5.88;2.55;;;;;;;-145.79;96.91;76843.16;5283626;28;20036;-68
2023/10/31 13:56:12;;;;;;;6.28;2.53;;;;;;;-145.79;98.85;76817.72;5276115;28;20024;-68
2023/10/31 13:58:43;;;;;;;5.35;2.38;;;;;;;-145.79;95.56;76851.63;5277852;28;20025;-68
2023/10/31 14:01:15;;;;;;;6.45;2.72;;;;;;;-145.79;94.83;76860.13;5282538;28;20020;-67
2023/10/31 14:03:47;;;;;;;4.40;2.70;;;;;;;-145.79;93.68;76877.06;5283004;28;20067;-66
2023/10/31 14:06:18;;;;;;;8.50;2.58;;;;;;;-145.79;93.73;76883.44;5289878;28;20028;-66
2023/10/31 14:08:50;;;;;;;6.25;3.45;;;;;;;-145.79;92.63;76881.31;5282782;28;20078;-66
2023/10/31 14:11:22;;;;;;;4.50;2.70;;;;;;;-145.79;93.42;76879.19;5279996;28;20016;-68
2023/10/31 14:13:53;;;;;;;5.20;2.60;;;;;;;-145.79;93.35;76891.91;5267493;28;20480;-68
2023/10/31 14:16:24;;;;;;;4.88;2.50;;;;;;;-145.79;94.79;76887.66;5279248;28;20021;-67
2023/10/31 14:18:56;;;;;;;3.85;2.58;;;;;;;-145.79;94.73;76885.56;5274290;28;20052;-73
2023/10/31 14:21:27;;;;;;;5.32;2.80;;;;;;;-145.79;92.97;76894.03;5272835;28;20128;-73
2023/10/31 14:24:00;;;;;;;7.47;2.78;;;;;;;-145.79;93.84;76898.25;5246473;28;20375;-68
2023/10/31 14:26:34;;;;;;;4.50;2.75;;;;;;;-145.79;95.28;76900.38;5258049;28;20064;-68
2023/10/31 14:29:05;;;;;;;5.40;3.38;;;;;;;-145.79;96.44;76904.63;5258174;28;20022;-75
2023/10/31 14:31:41;;;;;;;6.38;3.28;;;;;;;-145.79;98.82;76885.56;5268941;28;20103;-68
2023/10/31 14:34:12;;;;;;;5.47;3.55;;;;;;;-145.79;98.97;76889.78;5257423;28;20032;-70
2023/10/31 14:36:43;;;;;;;5.82;3.22;;;;;;;-145.79;100.00;76906.75;5258437;28;20019;-71
2023/10/31 14:39:15;;;;;;;7.75;3.33;;;;;;;-145.79;100.00;76910.97;5274309;28;20077;-71
2023/10/31 14:41:46;;;;;;;8.48;4.95;;;;;;;-145.79;100.00;76915.22;5267574;28;20021;-71
2023/10/31 14:44:18;;;;;;;7.25;4.25;;;;;;;-145.79;100.00;76919.47;5270010;28;20040;-70
2023/10/31 14:46:49;;;;;;;8.15;3.80;;;;;;;-145.79;100.00;76927.94;5269508;28;20086;-71
2023/10/31 14:49:21;;;;;;;8.13;3.78;;;;;;;-145.79;100.00;76934.28;5269640;28;20035;-71
2023/10/31 14:51:52;;;;;;;4.60;3.42;;;;;;;-145.79;100.00;76936.41;5270849;28;20032;-71
2023/10/31 14:54:25;;;;;;;4.35;3.15;;;;;;;-145.79;100.00;76930.06;5262869;28;20032;-70
2023/10/31 14:56:56;;;;;;;5.03;2.97;;;;;;;-145.79;100.00;76927.94;5262533;28;20036;-70
2023/10/31 14:59:27;;;;;;;5.13;3.40;;;;;;;-145.79;100.00;76949.13;5266335;28;20029;-70
2023/10/31 15:01:59;;;;;;;5.10;3.60;;;;;;;-145.79;100.00;76942.78;5270289;28;20108;-72
2023/10/31 15:04:30;;;;;;;5.90;3.47;;;;;;;-145.79;100.00;76940.66;5269707;28;20326;-69
2023/10/31 15:07:02;;;;;;;6.03;4.00;;;;;;;-145.79;100.00;76944.91;5269334;28;20377;-71
2023/10/31 15:09:33;;;;;;;7.65;3.70;;;;;;;-145.79;100.00;76942.78;5259918;28;20029;-71
2023/10/31 15:12:05;;;;;;;5.85;3.20;;;;;;;-145.79;100.00;76932.19;5269789;28;20033;-69
2023/10/31 15:14:36;;;;;;;3.72;3.42;;;;;;;-145.79;100.00;76942.78;5258141;28;20151;-70
2023/10/31 15:17:07;;;;;;;4.43;3.80;;;;;;;-145.79;100.00;76934.28;5257829;28;20037;-71
2023/10/31 15:19:39;;;;;;;3.83;3.03;;;;;;;-145.79;100.00;76942.78;5273841;28;20459;-70
2023/10/31 15:22:10;;;;;;;3.80;3.50;;;;;;;-145.79;100.00;76927.94;5271772;28;20051;-69
2023/10/31 15:24:41;;;;;;;3.30;2.92;;;;;;;-145.79;100.00;76932.19;5274267;28;20055;-72
2023/10/31 15:27:17;;;;;;;5.03;3.40;;;;;;;-145.79;100.00;76936.41;5272667;28;20028;-73
2023/10/31 15:29:48;;;;;;;7.38;5.00;;;;;;;-145.79;100.00;76957.59;5279886;28;20044;-70
2023/10/31 15:32:20;;;;;;;4.43;3.80;;;;;;;-145.79;100.00;76953.38;5277608;28;20033;-72
2023/10/31 15:34:51;;;;;;;6.00;4.68;;;;;;;-145.79;100.00;76942.78;5279182;28;20468;-72
2023/10/31 15:37:22;;;;;;;3.83;3.10;;;;;;;-145.79;100.00;76947.00;5266876;28;20032;-72
2023/10/31 15:39:54;;;;;;;4.63;3.35;;;;;;;-145.79;100.00;76925.81;5281644;28;20032;-73
2023/10/31 15:42:26;;;;;;;3.50;3.20;;;;;;;-145.79;100.00;76940.66;5281530;28;20086;-72
2023/10/31 15:44:57;;;;;;;6.60;3.58;;;;;;;-145.79;100.00;76940.66;5284007;28;20050;-72
2023/10/31 15:47:29;;;;;;;3.45;3.03;;;;;;;-145.79;100.00;76959.72;5285566;28;20057;-71
2023/10/31 15:50:00;;;;;;;4.22;2.80;;;;;;;-145.79;100.00;76953.38;5284699;28;20032;-71
2023/10/31 15:52:32;;;;;;;4.93;3.15;;;;;;;-145.79;100.00;76919.47;5277902;28;20472;-71
2023/10/31 15:55:04;;;;;;;3.70;3.40;;;;;;;-145.79;100.00;76951.25;5279992;28;20108;-71
2023/10/31 15:57:35;;;;;;;4.30;3.40;;;;;;;-145.79;100.00;76932.19;5281210;28;20024;-72
2023/10/31 16:00:08;;;;;;;4.75;3.50;;;;;;;-145.79;100.00;76961.84;5283936;28;20503;-69
2023/10/31 16:02:39;;;;;;;3.95;3.55;;;;;;;-145.79;100.00;76959.72;5284961;28;20037;-70
2023/10/31 16:05:11;;;;;;;6.78;4.32;;;;;;;-145.79;100.00;76949.13;5280370;28;20048;-70
2023/10/31 16:07:42;;;;;;;4.00;3.55;;;;;;;-145.79;100.00;76966.09;5281426;28;20472;-71
2023/10/31 16:10:13;;;;;;;4.88;3.28;;;;;;;-145.79;100.00;76980.94;5274747;28;20033;-72
2023/10/31 16:12:45;;;;;;;5.18;3.95;;;;;;;-145.79;100.00;76976.69;5280984;28;20380;-72
2023/10/31 16:15:17;;;;;;;6.57;5.97;;;;;;;-145.79;100.00;76974.56;5282288;28;20024;-71
2023/10/31 16:17:49;;;;;;;4.30;3.90;;;;;;;-145.79;100.00;76961.84;5284681;28;20024;-70
2023/10/31 16:20:20;;;;;;;6.03;4.75;;;;;;;-145.79;100.00;76961.84;5282689;28;20025;-72
2023/10/31 16:22:52;;;;;;;5.55;4.55;;;;;;;-145.79;100.00;76970.31;5278269;28;20059;-72
2023/10/31 16:25:23;;;;;;;5.90;5.28;;;;;;;-145.79;100.00;76961.84;5283426;28;20388;-71
2023/10/31 16:27:54;;;;;;;7.60;6.63;;;;;;;-145.79;100.00;76959.72;5273828;28;20116;-72
2023/10/31 16:30:26;;;;;;;5.85;5.00;;;;;;;-145.79;100.00;76961.84;5274491;28;20113;-71
2023/10/31 16:32:57;;;;;;;6.10;4.35;;;;;;;-145.79;100.00;76940.66;5272845;28;20504;-72
2023/10/31 16:35:29;;;;;;;4.85;4.22;;;;;;;-145.79;100.00;76970.31;5278678;28;20055;-72
2023/10/31 16:38:00;;;;;;;5.15;4.55;;;;;;;-145.79;100.00;76959.72;5285411;28;20109;-71
2023/10/31 16:40:32;;;;;;;5.68;4.68;;;;;;;-145.79;100.00;76976.69;5283984;28;20052;-71
2023/10/31 16:43:03;;;;;;;6.53;3.80;;;;;;;-145.79;100.00;76987.28;5276877;28;20029;-71
2023/10/31 16:45:34;;;;;;;4.30;3.90;;;;;;;-145.79;100.00;76974.56;5277940;28;20502;-71
2023/10/31 16:48:06;;;;;;;5.20;4.20;;;;;;;-145.79;100.00;76991.53;5278106;28;20025;-71
2023/10/31 16:50:37;;;;;;;5.28;3.22;;;;;;;-145.79;100.00;76997.88;5278250;28;20241;-71
2023/10/31 16:53:08;;;;;;;4.60;4.00;;;;;;;-145.79;100.00;76993.63;5285010;28;20060;-71
